createdAt,value
2018-10-16T00:00:16.352Z,98104.62
2018-10-16T00:02:46.403Z,98107.56
2018-10-16T00:05:16.601Z,98106.30
2018-10-16T00:07:46.089Z,98113.49
2018-10-16T00:10:19.573Z,98119.41
2018-10-16T00:12:48.991Z,98113.00
2018-10-16T00:15:18.395Z,98112.16
2018-10-16T00:17:47.784Z,98093.35
2018-10-16T00:20:17.180Z,98114.69
2018-10-16T00:22:46.583Z,98111.73
2018-10-16T00:25:17.440Z,98112.61
2018-10-16T00:27:46.887Z,98113.49
2018-10-16T00:30:16.360Z,98116.05
2018-10-16T00:32:45.906Z,98120.72
2018-10-16T00:35:15.353Z,98119.44
2018-10-16T00:37:44.744Z,98127.11
2018-10-16T00:40:14.123Z,98118.14
2018-10-16T00:42:43.524Z,98124.93
2018-10-16T00:45:13.191Z,98124.97
2018-10-16T00:47:42.607Z,98122.84
2018-10-16T00:50:12.127Z,98127.08
2018-10-16T00:52:41.568Z,98132.16
2018-10-16T00:55:11.151Z,98131.29
2018-10-16T00:57:41.203Z,98129.59
2018-10-16T01:00:12.290Z,98143.62
2018-10-16T01:02:42.599Z,98138.90
2018-10-16T01:05:12.832Z,98141.41
2018-10-16T01:07:42.755Z,98145.65
2018-10-16T01:10:12.916Z,98151.60
2018-10-16T01:12:42.499Z,98151.97
2018-10-16T01:15:12.543Z,98147.67
2018-10-16T01:17:42.127Z,98151.42
2018-10-16T01:20:13.261Z,98145.86
2018-10-16T01:22:43.142Z,98145.83
2018-10-16T01:25:13.416Z,98150.91
2018-10-16T01:27:42.808Z,98153.03
2018-10-16T01:30:12.299Z,98150.88
2018-10-16T01:32:41.715Z,98147.00
2018-10-16T01:35:12.271Z,98147.88
2018-10-16T01:37:42.079Z,98144.91
2018-10-16T01:40:11.900Z,98142.72
2018-10-16T01:42:41.311Z,98143.57
2018-10-16T01:45:11.212Z,98143.23
2018-10-16T01:47:40.616Z,98142.80
2018-10-16T01:50:10.073Z,98136.45
2018-10-16T01:52:39.535Z,98142.42
2018-10-16T01:55:08.947Z,98139.80
2018-10-16T01:57:38.368Z,98145.30
2018-10-16T02:00:09.365Z,98142.30
2018-10-16T02:02:38.953Z,98143.13
2018-10-16T02:05:08.632Z,98135.09
2018-10-16T02:07:38.076Z,98145.78
2018-10-16T02:10:08.015Z,98141.95
2018-10-16T02:12:37.636Z,98141.10
2018-10-16T02:15:08.520Z,98149.61
2018-10-16T02:17:38.806Z,98144.95
2018-10-16T02:20:08.623Z,98148.33
2018-10-16T02:22:38.631Z,98158.51
2018-10-16T02:25:08.803Z,98155.95
2018-10-16T02:27:38.297Z,98156.81
2018-10-16T02:30:07.848Z,98156.41
2018-10-16T02:32:37.297Z,98159.86
2018-10-16T02:35:08.264Z,98161.61
2018-10-16T02:37:37.675Z,98160.78
2018-10-16T02:40:08.230Z,98160.00
2018-10-16T02:42:38.096Z,98156.63
2018-10-16T02:45:08.695Z,98156.63
2018-10-16T02:47:38.263Z,98155.33
2018-10-16T02:50:08.325Z,98152.80
2018-10-16T02:52:37.848Z,98155.30
2018-10-16T02:55:09.068Z,98156.53
2018-10-16T02:57:38.511Z,98152.68
2018-10-16T03:00:08.071Z,98154.39
2018-10-16T03:02:37.569Z,98156.96
2018-10-16T03:05:07.156Z,98157.81
2018-10-16T03:07:36.703Z,98159.96
2018-10-16T03:10:06.247Z,98163.77
2018-10-16T03:12:35.628Z,98167.14
2018-10-16T03:15:08.040Z,98173.09
2018-10-16T03:17:37.708Z,98173.52
2018-10-16T03:20:07.515Z,98174.83
2018-10-16T03:22:37.248Z,98052.16
2018-10-16T03:25:08.516Z,98169.93
2018-10-16T03:27:38.275Z,98172.48
2018-10-16T03:30:09.770Z,98162.73
2018-10-16T03:32:39.655Z,98172.48
2018-10-16T03:35:10.593Z,98170.33
2018-10-16T03:37:41.063Z,98174.16
2018-10-16T03:40:11.296Z,98176.61
2018-10-16T03:42:41.702Z,98176.22
2018-10-16T03:45:12.364Z,98179.09
2018-10-16T03:47:41.973Z,98175.66
2018-10-16T03:50:11.396Z,98181.16
2018-10-16T03:52:40.884Z,98183.20
2018-10-16T03:55:10.307Z,98183.14
2018-10-16T03:57:39.735Z,98182.75
2018-10-16T04:00:10.252Z,98184.84
2018-10-16T04:02:39.780Z,98160.05
2018-10-16T04:05:09.283Z,98180.98
2018-10-16T04:07:39.188Z,98189.09
2018-10-16T04:10:09.164Z,98190.71
2018-10-16T04:12:38.591Z,98190.67
2018-10-16T04:15:09.602Z,98195.88
2018-10-16T04:17:39.699Z,98191.24
2018-10-16T04:20:09.218Z,98187.42
2018-10-16T04:22:38.875Z,98184.45
2018-10-16T04:25:08.820Z,98191.28
2018-10-16T04:27:38.301Z,98188.30
2018-10-16T04:30:08.459Z,98184.88
2018-10-16T04:32:37.863Z,98190.36
2018-10-16T04:35:13.671Z,98186.89
2018-10-16T04:37:43.483Z,98187.31
2018-10-16T04:40:13.064Z,98190.78
2018-10-16T04:42:42.931Z,98191.95
2018-10-16T04:45:13.158Z,98192.84
2018-10-16T04:47:42.586Z,98198.78
2018-10-16T04:50:11.984Z,98194.91
2018-10-16T04:52:41.712Z,98201.17
2018-10-16T04:55:11.217Z,98175.95
2018-10-16T04:57:40.596Z,98199.34
2018-10-16T05:00:10.501Z,98205.67
2018-10-16T05:02:41.044Z,98202.16
2018-10-16T05:05:19.151Z,98202.61
2018-10-16T05:07:48.967Z,98208.42
2018-10-16T05:10:25.932Z,98207.61
2018-10-16T05:12:55.395Z,98209.19
2018-10-16T05:15:30.624Z,98211.39
2018-10-16T05:18:00.879Z,98209.65
2018-10-16T05:20:30.700Z,98216.02
2018-10-16T05:23:00.865Z,98215.26
2018-10-16T05:25:30.976Z,98191.87
2018-10-16T05:28:00.396Z,98218.74
2018-10-16T05:30:29.805Z,98217.80
2018-10-16T05:32:59.197Z,98219.17
2018-10-16T05:35:28.629Z,98200.70
2018-10-16T05:37:58.113Z,98224.55
2018-10-16T05:40:27.508Z,98227.91
2018-10-16T05:42:57.023Z,98204.33
2018-10-16T05:45:27.772Z,98231.14
2018-10-16T05:47:57.261Z,98096.05
2018-10-16T05:50:26.711Z,98235.38
2018-10-16T05:52:56.121Z,98231.95
2018-10-16T05:55:25.569Z,98235.01
2018-10-16T05:57:54.980Z,98238.84
2018-10-16T06:00:36.285Z,98240.16
2018-10-16T06:03:06.076Z,98235.48
2018-10-16T06:05:35.856Z,98234.69
2018-10-16T06:08:05.636Z,98234.27
2018-10-16T06:10:35.400Z,98238.98
2018-10-16T06:13:04.999Z,98234.27
2018-10-16T06:15:34.407Z,98247.94
2018-10-16T06:18:03.811Z,98222.00
2018-10-16T06:20:33.260Z,98257.37
2018-10-16T06:23:02.720Z,98261.52
2018-10-16T06:25:32.126Z,98266.98
2018-10-16T06:28:14.783Z,98267.03
2018-10-16T06:30:44.240Z,98266.66
2018-10-16T06:33:14.158Z,98267.23
2018-10-16T06:35:43.509Z,98272.75
2018-10-16T06:38:12.895Z,98281.77
2018-10-16T06:40:42.337Z,98279.34
2018-10-16T06:43:11.807Z,98285.30
2018-10-16T06:45:41.283Z,98282.41
2018-10-16T06:48:11.047Z,98278.33
2018-10-16T06:50:40.299Z,98291.63
2018-10-16T06:53:09.748Z,98291.32
2018-10-16T06:55:39.172Z,98292.25
2018-10-16T06:58:08.666Z,98300.02
2018-10-16T07:00:38.076Z,98289.95
2018-10-16T07:03:07.708Z,98296.45
2018-10-16T07:05:37.104Z,98294.45
2018-10-16T07:08:06.511Z,98293.24
2018-10-16T07:10:35.924Z,98291.20
2018-10-16T07:13:05.372Z,98292.16
2018-10-16T07:15:34.784Z,98294.74
2018-10-16T07:18:04.200Z,98292.23
2018-10-16T07:20:33.596Z,98294.91
2018-10-16T07:23:03.017Z,98294.16
2018-10-16T07:25:32.404Z,98296.32
2018-10-16T07:28:01.817Z,98301.52
2018-10-16T07:30:31.319Z,98296.88
2018-10-16T07:33:00.709Z,98296.50
2018-10-16T07:35:30.123Z,98290.57
2018-10-16T07:37:59.637Z,98293.98
2018-10-16T07:40:28.948Z,98299.55
2018-10-16T07:42:58.352Z,98294.47
2018-10-16T07:45:27.744Z,98295.31
2018-10-16T07:47:57.134Z,98292.75
2018-10-16T07:50:26.551Z,98290.64
2018-10-16T07:52:55.936Z,98292.38
2018-10-16T07:55:25.385Z,98295.79
2018-10-16T07:57:54.783Z,98302.63
2018-10-16T08:00:24.187Z,98298.31
2018-10-16T08:02:53.691Z,98300.89
2018-10-16T08:05:23.119Z,98304.73
2018-10-16T08:07:52.593Z,98306.86
2018-10-16T08:10:22.011Z,98287.64
2018-10-16T08:12:51.404Z,98307.72
2018-10-16T08:15:20.805Z,98305.54
2018-10-16T08:17:50.224Z,98305.05
2018-10-16T08:20:19.624Z,98311.41
2018-10-16T08:22:49.026Z,98307.05
2018-10-16T08:25:18.544Z,98304.00
2018-10-16T08:27:47.984Z,98302.22
2018-10-16T08:30:17.441Z,98303.02
2018-10-16T08:32:46.816Z,98307.23
2018-10-16T08:35:16.214Z,98302.78
2018-10-16T08:39:56.531Z,98303.10
2018-10-16T08:43:44.097Z,98304.62
2018-10-16T08:46:30.816Z,98306.47
2018-10-16T08:49:17.240Z,98310.95
2018-10-16T08:51:50.304Z,98311.59
2018-10-16T08:54:20.194Z,98309.23
2018-10-16T08:56:49.796Z,98305.47
2018-10-16T08:59:19.539Z,98305.58
2018-10-16T09:01:49.214Z,98312.95
2018-10-16T09:04:18.887Z,98306.18
2018-10-16T09:06:48.497Z,98305.94
2018-10-16T09:09:19.006Z,98311.23
2018-10-16T09:11:49.397Z,98306.58
2018-10-16T09:14:19.185Z,98308.37
2018-10-16T09:16:48.686Z,98312.73
2018-10-16T09:19:18.333Z,98308.98
2018-10-16T09:21:48.017Z,98308.14
2018-10-16T09:24:17.618Z,98303.84
2018-10-16T09:29:15.753Z,98302.93
2018-10-16T09:31:45.539Z,98301.45
2018-10-16T09:34:15.133Z,98306.11
2018-10-16T09:36:44.762Z,98300.73
2018-10-16T09:39:14.359Z,98305.31
2018-10-16T09:41:44.068Z,98304.37
2018-10-16T09:44:13.671Z,98302.14
2018-10-16T09:46:43.400Z,98306.95
2018-10-16T09:49:13.009Z,98306.71
2018-10-16T09:51:42.599Z,98303.42
2018-10-16T09:54:12.237Z,98303.02
2018-10-16T09:56:41.931Z,98300.20
2018-10-16T09:59:11.534Z,98300.38
2018-10-16T10:01:45.941Z,98299.34
2018-10-16T10:04:15.616Z,98294.33
2018-10-16T10:06:45.272Z,98289.67
2018-10-16T10:09:14.890Z,98291.67
2018-10-16T10:11:44.488Z,98287.27
2018-10-16T10:14:14.050Z,98289.23
2018-10-16T10:16:43.714Z,98285.73
2018-10-16T10:19:13.290Z,98282.30
2018-10-16T10:21:42.871Z,98279.02
2018-10-16T10:24:12.477Z,98282.67
2018-10-16T10:26:42.084Z,98276.52
2018-10-16T10:29:11.733Z,98276.05
2018-10-16T10:31:41.353Z,98271.61
2018-10-16T10:34:10.871Z,98268.77
2018-10-16T10:36:40.573Z,98265.98
2018-10-16T10:39:12.744Z,98260.69
2018-10-16T10:41:42.951Z,98268.20
2018-10-16T10:44:12.565Z,98258.88
2018-10-16T10:46:42.251Z,98252.48
2018-10-16T10:49:11.843Z,98259.48
2018-10-16T10:51:41.763Z,98254.30
2018-10-16T10:54:11.168Z,98247.31
2018-10-16T10:56:40.838Z,98248.87
2018-10-16T10:59:10.227Z,98233.23
2018-10-16T11:01:39.629Z,98246.50
2018-10-16T11:04:09.046Z,98242.20
2018-10-16T11:06:38.445Z,98254.33
2018-10-16T11:09:11.505Z,98251.02
2018-10-16T11:11:41.536Z,98255.01
2018-10-16T11:14:10.952Z,98250.07
2018-10-16T11:16:40.413Z,98253.53
2018-10-16T11:19:09.823Z,98254.00
2018-10-16T11:21:39.225Z,98256.52
2018-10-16T11:24:09.003Z,98259.73
2018-10-16T11:26:38.421Z,98262.22
2018-10-16T11:29:07.860Z,98270.81
2018-10-16T11:31:37.620Z,98268.16
2018-10-16T11:34:07.412Z,98275.38
2018-10-16T11:36:36.876Z,98272.73
2018-10-16T11:39:09.810Z,98272.02
2018-10-16T11:41:39.240Z,98266.88
2018-10-16T11:44:10.375Z,98272.59
2018-10-16T11:46:39.960Z,98274.24
2018-10-16T11:49:09.799Z,98276.76
2018-10-16T11:51:39.188Z,98275.28
2018-10-16T11:54:09.119Z,98279.02
2018-10-16T11:56:38.803Z,98288.88
2018-10-16T11:59:08.227Z,98286.17
2018-10-16T12:01:37.656Z,98290.41
2018-10-16T12:04:07.087Z,98286.55
2018-10-16T12:06:36.585Z,98284.22
2018-10-16T12:09:09.422Z,98282.94
2018-10-16T12:11:39.740Z,98286.86
2018-10-16T12:14:09.846Z,98283.86
2018-10-16T12:16:47.278Z,98291.48
2018-10-16T12:19:21.908Z,98292.94
2018-10-16T12:21:51.320Z,98296.00
2018-10-16T12:24:20.760Z,98291.31
2018-10-16T12:26:50.149Z,98296.16
2018-10-16T12:29:19.560Z,98290.27
2018-10-16T12:31:48.967Z,98296.25
2018-10-16T12:34:18.363Z,98293.47
2018-10-16T12:36:47.775Z,98298.23
2018-10-16T12:39:17.224Z,98297.23
2018-10-16T12:41:46.671Z,98294.48
2018-10-16T12:44:16.096Z,98301.69
2018-10-16T12:46:45.500Z,98303.16
2018-10-16T12:49:15.063Z,98306.09
2018-10-16T12:51:44.584Z,98301.16
2018-10-16T12:54:14.098Z,98304.01
2018-10-16T12:56:43.462Z,98306.09
2018-10-16T12:59:12.935Z,98312.33
2018-10-16T13:01:42.282Z,98306.16
2018-10-16T13:04:11.684Z,98303.79
2018-10-16T13:06:41.201Z,98303.42
2018-10-16T13:09:11.972Z,98308.57
2018-10-16T13:11:42.257Z,98302.76
2018-10-16T13:14:11.774Z,98304.05
2018-10-16T13:16:41.165Z,98304.59
2018-10-16T13:19:10.576Z,98307.12
2018-10-16T13:21:39.965Z,98308.25
2018-10-16T13:24:09.356Z,98307.99
2018-10-16T13:26:38.772Z,98308.81
2018-10-16T13:29:08.419Z,98304.67
2018-10-16T13:31:37.739Z,98307.38
2018-10-16T13:34:07.248Z,98313.81
2018-10-16T13:36:36.628Z,98314.14
2018-10-16T13:39:08.487Z,98310.80
2018-10-16T13:41:37.893Z,98314.02
2018-10-16T13:44:07.294Z,98320.64
2018-10-16T13:46:36.680Z,98320.72
2018-10-16T13:49:07.151Z,98319.30
2018-10-16T13:51:36.544Z,98331.95
2018-10-16T13:54:06.420Z,98331.22
2018-10-16T13:56:35.832Z,98336.51
2018-10-16T13:59:05.800Z,98335.30
2018-10-16T14:01:35.236Z,98333.47
2018-10-16T14:04:04.702Z,98337.39
2018-10-16T14:06:34.025Z,98332.10
2018-10-16T14:09:05.177Z,98327.28
2018-10-16T14:11:34.579Z,98333.72
2018-10-16T14:14:04.445Z,98336.86
2018-10-16T14:16:33.847Z,98335.39
2018-10-16T14:19:04.732Z,98333.35
2018-10-16T14:21:34.140Z,98333.37
2018-10-16T14:24:04.775Z,98337.80
2018-10-16T14:26:34.224Z,98335.03
2018-10-16T14:29:05.837Z,98338.91
2018-10-16T14:31:35.241Z,98344.44
2018-10-16T14:34:04.760Z,98344.94
2018-10-16T14:36:34.160Z,98349.84
2018-10-16T14:39:07.004Z,98343.24
2018-10-16T14:41:36.443Z,98347.36
2018-10-16T14:44:06.330Z,98339.53
2018-10-16T14:46:35.892Z,98344.07
2018-10-16T14:49:05.323Z,98343.78
2018-10-16T14:51:35.520Z,98346.84
2018-10-16T14:54:05.047Z,98342.17
2018-10-16T14:56:34.945Z,98336.89
2018-10-16T14:59:04.859Z,98340.77
2018-10-16T15:01:34.288Z,98326.31
2018-10-16T15:04:05.113Z,98343.95
2018-10-16T15:06:34.476Z,98346.69
2018-10-16T15:09:06.756Z,98346.49
2018-10-16T15:11:36.160Z,98341.63
2018-10-16T15:14:05.747Z,98345.52
2018-10-16T15:16:35.323Z,98339.97
2018-10-16T15:19:04.798Z,98340.86
2018-10-16T15:21:34.219Z,98340.72
2018-10-16T15:24:04.803Z,98342.62
2018-10-16T15:26:34.239Z,98334.95
2018-10-16T15:29:05.128Z,98336.21
2018-10-16T15:31:34.581Z,98345.31
2018-10-16T15:34:05.188Z,98339.39
2018-10-16T15:36:34.588Z,98347.79
2018-10-16T15:39:08.160Z,98348.16
2018-10-16T15:41:37.695Z,98349.41
2018-10-16T15:44:07.829Z,98343.12
2018-10-16T15:46:37.728Z,98343.80
2018-10-16T15:49:07.183Z,98349.94
2018-10-16T15:51:36.959Z,98349.38
2018-10-16T15:54:06.814Z,98352.33
2018-10-16T15:56:36.133Z,98348.34
2018-10-16T15:59:05.573Z,98351.87
2018-10-16T16:01:34.994Z,98351.30
2018-10-16T16:04:05.271Z,98354.70
2018-10-16T16:06:34.652Z,98355.55
2018-10-16T16:09:06.867Z,98356.85
2018-10-16T16:11:36.343Z,98354.06
2018-10-16T16:14:05.972Z,98358.25
2018-10-16T16:16:35.546Z,98359.66
2018-10-16T16:19:05.702Z,98355.44
2018-10-16T16:21:35.192Z,98351.28
2018-10-16T16:24:05.370Z,98356.94
2018-10-16T16:26:34.740Z,98358.91
2018-10-16T16:29:06.434Z,98363.27
2018-10-16T16:31:35.857Z,98355.86
2018-10-16T16:34:05.689Z,98350.13
2018-10-16T16:36:35.098Z,98355.79
2018-10-16T16:39:08.780Z,98356.39
2018-10-16T16:41:38.205Z,98359.13
2018-10-16T16:44:07.744Z,98359.75
2018-10-16T16:46:37.239Z,98357.91
2018-10-16T16:49:07.451Z,98366.02
2018-10-16T16:51:36.895Z,98363.96
2018-10-16T16:54:06.713Z,98368.34
2018-10-16T16:56:36.132Z,98371.52
2018-10-16T16:59:05.642Z,98368.24
2018-10-16T17:01:35.143Z,98371.95
2018-10-16T17:04:06.014Z,98366.48
2018-10-16T17:06:35.375Z,98366.52
2018-10-16T17:09:09.060Z,98357.23
2018-10-16T17:11:38.710Z,98366.38
2018-10-16T17:14:08.423Z,98358.47
2018-10-16T17:16:37.857Z,98358.21
2018-10-16T17:19:07.648Z,98363.05
2018-10-16T17:21:37.289Z,98366.72
2018-10-16T17:24:06.769Z,98371.58
2018-10-16T17:26:36.220Z,98374.33
2018-10-16T17:29:06.712Z,98374.16
2018-10-16T17:31:36.137Z,98374.84
2018-10-16T17:34:05.676Z,98372.79
2018-10-16T17:36:35.074Z,98382.05
2018-10-16T17:39:07.652Z,98385.15
2018-10-16T17:41:37.065Z,98390.97
2018-10-16T17:44:07.637Z,98389.14
2018-10-16T17:46:37.349Z,98387.60
2018-10-16T17:49:07.604Z,98390.47
2018-10-16T17:51:37.736Z,98386.52
2018-10-16T17:54:07.279Z,98381.03
2018-10-16T17:56:36.748Z,98389.27
2018-10-16T17:59:07.048Z,98382.63
2018-10-16T18:01:37.730Z,98383.58
2018-10-16T18:04:09.219Z,98385.19
2018-10-16T18:06:40.110Z,98384.23
2018-10-16T18:09:11.207Z,98382.15
2018-10-16T18:11:41.969Z,98388.12
2018-10-16T18:14:13.301Z,98385.82
2018-10-16T18:16:46.044Z,98377.81
2018-10-16T18:19:17.475Z,98373.73
2018-10-16T18:21:48.447Z,98364.28
2018-10-16T18:24:19.736Z,98381.14
2018-10-16T18:26:51.331Z,98381.94
2018-10-16T18:29:24.029Z,98383.73
2018-10-16T18:31:55.575Z,98383.68
2018-10-16T18:34:27.956Z,98378.15
2018-10-16T18:36:58.915Z,98376.93
2018-10-16T18:39:31.661Z,98372.50
2018-10-16T18:42:04.400Z,98369.77
2018-10-16T18:44:37.369Z,98373.80
2018-10-16T18:47:10.347Z,98365.73
2018-10-16T18:49:43.331Z,98373.08
2018-10-16T18:52:16.732Z,98377.09
2018-10-16T18:54:49.615Z,98370.22
2018-10-16T18:57:22.518Z,98372.81
2018-10-16T18:59:55.767Z,98366.39
2018-10-16T19:02:28.450Z,98365.96
2018-10-16T19:05:01.382Z,98367.36
2018-10-16T19:07:34.577Z,98368.98
2018-10-16T19:10:07.942Z,98372.09
2018-10-16T19:12:41.970Z,98376.98
2018-10-16T19:15:16.826Z,98380.94
2018-10-16T19:17:49.873Z,98392.58
2018-10-16T19:20:23.202Z,98395.64
2018-10-16T19:22:56.151Z,98397.50
2018-10-16T19:25:29.301Z,98393.08
2018-10-16T19:28:02.602Z,98392.23
2018-10-16T19:30:35.429Z,98402.63
2018-10-16T19:33:08.619Z,98394.73
2018-10-16T19:35:41.828Z,98402.10
2018-10-16T19:38:14.735Z,98399.56
2018-10-16T19:40:47.792Z,98400.45
2018-10-16T19:43:20.976Z,98403.06
2018-10-16T19:45:53.956Z,98399.75
2018-10-16T19:48:26.975Z,98402.84
2018-10-16T19:50:59.942Z,98401.37
2018-10-16T19:53:32.919Z,98404.62
2018-10-16T19:56:06.710Z,98409.86
2018-10-16T19:58:39.570Z,98405.42
2018-10-16T20:01:12.765Z,98403.45
2018-10-16T20:03:45.651Z,98409.20
2018-10-16T20:06:18.876Z,98410.39
2018-10-16T20:08:52.045Z,98414.76
2018-10-16T20:11:25.396Z,98414.81
2018-10-16T20:13:58.289Z,98413.31
2018-10-16T20:16:32.515Z,98411.48
2018-10-16T20:19:06.202Z,98409.89
2018-10-16T20:21:39.247Z,98413.71
2018-10-16T20:24:12.207Z,98410.69
2018-10-16T20:26:45.289Z,98408.53
2018-10-16T20:29:18.257Z,98409.82
2018-10-16T20:31:51.218Z,98412.36
2018-10-16T20:34:24.314Z,98411.95
2018-10-16T20:36:56.561Z,98415.47
2018-10-16T20:39:27.792Z,98411.64
2018-10-16T20:42:00.599Z,98409.55
2018-10-16T20:44:32.513Z,98412.12
2018-10-16T20:47:03.173Z,98413.13
2018-10-16T20:49:33.446Z,98415.46
2018-10-16T20:52:03.100Z,98412.29
2018-10-16T20:54:32.844Z,98416.73
2018-10-16T20:57:02.284Z,98420.30
2018-10-16T20:59:31.715Z,98419.64
2018-10-16T21:02:01.244Z,98418.56
2018-10-16T21:04:30.741Z,98423.71
2018-10-16T21:07:00.183Z,98412.91
2018-10-16T21:09:29.519Z,98415.05
2018-10-16T21:11:58.937Z,98414.98
2018-10-16T21:14:28.331Z,98413.73
2018-10-16T21:16:57.767Z,98421.11
2018-10-16T21:19:27.273Z,98417.75
2018-10-16T21:21:56.701Z,98416.92
2018-10-16T21:24:26.099Z,98414.00
2018-10-16T21:27:11.795Z,98405.54
2018-10-16T21:29:41.229Z,98404.25
2018-10-16T21:32:10.636Z,98408.11
2018-10-16T21:34:40.077Z,98406.43
2018-10-16T21:37:09.572Z,98403.11
2018-10-16T21:39:38.979Z,98402.75
2018-10-16T21:42:08.371Z,98404.49
2018-10-16T21:44:37.796Z,98402.34
2018-10-16T21:47:07.277Z,98404.55
2018-10-16T21:49:36.636Z,98410.26
2018-10-16T21:52:06.070Z,98409.49
2018-10-16T21:54:35.540Z,98411.30
2018-10-16T21:57:04.967Z,98414.36
2018-10-16T21:59:34.487Z,98407.64
2018-10-16T22:02:08.961Z,98410.74
2018-10-16T22:04:40.459Z,98414.63
2018-10-16T22:07:10.495Z,98413.75
2018-10-16T22:09:39.891Z,98415.04
2018-10-16T22:12:09.280Z,98412.49
2018-10-16T22:14:38.716Z,98416.76
2018-10-16T22:17:08.210Z,98413.32
2018-10-16T22:19:37.585Z,98409.51
2018-10-16T22:22:07.065Z,98409.97
2018-10-16T22:24:36.489Z,98410.81
2018-10-16T22:27:06.112Z,98410.36
2018-10-16T22:29:35.541Z,98406.89
2018-10-16T22:32:04.960Z,98411.58
2018-10-16T22:34:34.372Z,98402.55
2018-10-16T22:37:04.013Z,98402.56
2018-10-16T22:39:33.359Z,98402.59
2018-10-16T22:42:02.760Z,98403.83
2018-10-16T22:44:32.222Z,98396.54
2018-10-16T22:47:01.632Z,98402.98
2018-10-16T22:49:31.030Z,98398.27
2018-10-16T22:52:00.433Z,98401.64
2018-10-16T22:54:29.828Z,98404.20
2018-10-16T22:56:59.243Z,98403.77
2018-10-16T22:59:28.647Z,98402.06
2018-10-16T23:01:58.064Z,98402.50
2018-10-16T23:04:27.479Z,98398.65
2018-10-16T23:06:56.937Z,98403.34
2018-10-16T23:09:26.292Z,98398.65
2018-10-16T23:11:55.703Z,98406.78
2018-10-16T23:14:25.203Z,98377.77
2018-10-16T23:16:54.699Z,98400.87
2018-10-16T23:19:24.092Z,98394.89
2018-10-16T23:21:53.576Z,98391.47
2018-10-16T23:24:22.971Z,98385.05
2018-10-16T23:26:52.464Z,98387.70
2018-10-16T23:29:21.871Z,98380.44
2018-10-16T23:31:51.355Z,98380.03
2018-10-16T23:34:20.791Z,98376.19
2018-10-16T23:36:50.268Z,98371.04
2018-10-16T23:39:19.675Z,98371.51
2018-10-16T23:41:49.066Z,98368.50
2018-10-16T23:44:18.480Z,98368.05
2018-10-16T23:46:47.871Z,98365.91
2018-10-16T23:49:17.273Z,98360.37
2018-10-16T23:51:46.679Z,98360.83
2018-10-16T23:54:16.223Z,98364.28
2018-10-16T23:56:45.649Z,98360.03
2018-10-16T23:59:15.171Z,98360.90
